Latest Weather Observations for Jabiru

IDD60801

Issued at 5:05 pm CST Thursday 18 September 2014 (issued every 30 minutes, with the page automatically refreshed every 10 minutes)

About weather observations | Map of weather stations | Latest weather observations for NT | Other Formats
Station Details ID: 014198 Name: JABIRU AIRPORT Lat: -12.66 Lon: 132.89 Height: 26.5 m
Data from the previous 72 hours. | See also: Recent months at Jabiru
Date/Time
CST
Temp
°C
App
Temp
°C
Dew
Point
Rel
Hum
%
Delta-T
°C
Wind Press
QNH
hPa
Press
MSL
hPa
Rain
since 9 am
mm
Dir
 
Spd
km/h
Gust
km/h
Spd
kts
Gust
kts
18/05:00pm 36.1 31.6 4.4 14 16.9 ENE 17 26 9 14 1010.4 1010.2 0.0
18/04:30pm 36.8 31.9 3.9 13 17.5 ENE 19 26 10 14 1010.4 1010.2 0.0
18/04:00pm 37.0 30.9 2.9 12 17.9 E 24 35 13 19 1010.6 1010.4 0.0
18/03:30pm 36.7 32.3 4.9 14 17.2 NE 17 30 9 16 1010.9 1010.7 0.0
18/03:00pm 36.9 31.6 5.0 14 17.3 ENE 22 37 12 20 1011.4 1011.2 0.0
18/02:30pm 36.9 31.8 2.8 12 17.8 ESE 19 28 10 15 1011.9 1011.7 0.0
18/02:00pm 36.6 29.5 1.4 11 18.0 E 28 43 15 23 1012.4 1012.2 0.0
18/01:30pm 37.2 32.1 3.1 12 17.9 E 19 33 10 18 1012.8 1012.6 0.0
18/01:00pm 36.3 29.6 1.2 11 17.8 E 26 39 14 21 1013.4 1013.2 0.0
18/12:32pm 35.9 28.9 2.1 12 17.4 ESE 28 46 15 25 1014.1 1013.9 0.0
18/12:30pm 36.2 29.6 2.3 12 17.5 ESE 26 46 14 25 1014.1 1013.9 0.0
18/12:21pm 35.6 28.8 3.0 13 17.0 E 28 46 15 25 1014.3 1014.1 0.0
18/12:00pm 36.5 31.5 4.7 14 17.1 E 20 39 11 21 1014.7 1014.5 0.0
18/11:30am 34.1 31.7 10.0 23 13.9 E 13 19 7 10 1015.6 1015.4 0.0
18/11:00am 31.0 30.9 15.0 38 9.8 S 9 15 5 8 1016.1 1015.9 0.0
18/10:30am 30.4 30.6 15.7 41 9.1 SE 9 15 5 8 1016.5 1016.3 0.0
18/10:00am 28.4 29.1 17.0 50 7.1 WSW 9 15 5 8 1016.9 1016.7 0.0
18/09:30am 27.2 27.5 17.9 56 5.9 SSW 13 19 7 10 1016.9 1016.7 0.0
18/09:00am 26.3 27.2 18.4 61 5.0 SSW 11 19 6 10 1016.9 1016.7 0.0
18/08:30am 25.0 25.9 18.4 66 4.2 WSW 11 15 6 8 1016.8 1016.6 0.0
18/08:00am 23.4 25.0 18.3 73 3.2 SW 7 11 4 6 1016.4 1016.2 0.0
18/07:30am 21.2 23.8 17.4 79 2.3 CALM 0 0 0 0 1016.1 1015.9 0.0
18/07:00am 19.9 22.3 17.1 84 1.7 CALM 0 0 0 0 1015.6 1015.4 0.0
18/06:30am 20.0 22.6 17.4 85 1.6 CALM 0 0 0 0 1015.1 1014.9 0.0
18/06:00am 20.5 21.8 17.5 83 1.8 WSW 7 9 4 5 1014.8 1014.6 0.0
18/05:30am 20.6 22.4 17.4 82 2.0 W 4 7 2 4 1014.6 1014.4 0.0
18/05:00am 20.7 22.1 17.3 81 2.1 W 6 7 3 4 1014.4 1014.2 0.0
18/04:30am 20.6 23.1 17.2 81 2.1 CALM 0 6 0 3 1014.2 1014.0 0.0
18/04:00am 21.2 22.6 17.8 81 2.1 SW 7 7 4 4 1014.2 1014.0 0.0
18/03:30am 21.2 22.5 17.6 80 2.2 SSW 7 9 4 5 1014.2 1014.0 0.0
18/03:00am 22.1 23.2 17.9 77 2.6 SSW 9 9 5 5 1014.2 1014.0 0.0
18/02:30am 22.2 23.7 18.0 77 2.6 SSW 7 9 4 5 1014.3 1014.1 0.0
18/02:00am 22.7 24.4 18.0 75 2.9 S 6 7 3 4 1014.4 1014.2 0.0
18/01:30am 22.7 24.1 17.8 74 3.0 SSW 7 9 4 5 1014.8 1014.6 0.0
18/01:00am 23.8 25.4 17.8 69 3.7 NW 6 7 3 4 1015.0 1014.8 0.0
18/12:30am 23.9 25.4 18.1 70 3.6 NNW 7 9 4 5 1015.1 1014.9 0.0
18/12:00am 24.5 26.3 18.7 70 3.7 NNW 7 9 4 5 1015.3 1015.1 0.0
 
Date/Time
CST
Temp
°C
App
Temp
°C
Dew
Point
Rel
Hum
%
Delta-T
°C
Wind Press
QNH
hPa
Press
MSL
hPa
Rain
since 9 am
mm
Dir
 
Spd
km/h
Gust
km/h
Spd
kts
Gust
kts
17/11:30pm 25.0 26.8 18.7 68 4.0 NNW 7 9 4 5 1015.2 1015.0 0.0
17/11:00pm 26.1 27.6 18.0 61 5.1 N 7 9 4 5 1015.1 1014.9 0.0
17/10:30pm 26.6 28.2 18.2 60 5.3 NNE 7 11 4 6 1015.0 1014.8 0.0
17/10:00pm 27.1 26.6 17.8 56 5.9 NE 17 24 9 13 1014.9 1014.7 0.0
17/09:30pm 27.0 28.6 18.3 59 5.5 N 7 13 4 7 1014.7 1014.5 0.0
17/09:00pm 27.5 28.6 17.9 55 6.1 N 9 13 5 7 1014.1 1013.9 0.0
17/08:30pm 28.1 28.8 17.9 54 6.5 N 11 17 6 9 1013.6 1013.4 0.0
17/08:00pm 28.7 28.1 17.6 51 7.0 NNW 17 28 9 15 1012.9 1012.7 0.0
17/07:30pm 29.6 28.7 16.8 46 8.0 NNW 17 24 9 13 1012.2 1012.0 0.0
17/07:00pm 31.0 29.3 16.2 41 9.3 N 20 28 11 15 1011.4 1011.2 0.0
17/06:30pm 33.9 32.4 7.0 19 14.8 E 4 6 2 3 1010.7 1010.5 0.0
17/06:00pm 35.5 33.2 5.8 16 16.2 E 7 11 4 6 1010.2 1010.0 0.0
17/05:30pm 36.1 33.0 5.4 15 16.7 ESE 11 19 6 10 1009.9 1009.7 0.0
17/05:00pm 36.7 33.3 3.8 13 17.4 ESE 11 15 6 8 1009.7 1009.5 0.0
17/04:30pm 36.8 32.6 3.9 13 17.5 SE 15 24 8 13 1009.6 1009.4 0.0
17/04:00pm 36.9 31.8 4.0 13 17.5 E 20 35 11 19 1009.7 1009.5 0.0
17/03:30pm 36.9 31.8 4.0 13 17.5 ENE 20 24 11 13 1009.7 1009.5 0.0
17/03:00pm 37.7 31.9 4.6 13 17.9 E 24 39 13 21 1009.9 1009.7 0.0
17/02:30pm 37.2 32.3 4.2 13 17.7 E 19 30 10 16 1010.3 1010.1 0.0
17/02:00pm 36.8 31.3 3.9 13 17.5 ESE 22 46 12 25 1010.8 1010.6 0.0
17/01:55pm 36.8 30.1 3.9 13 17.5 SE 28 46 15 25 1010.9 1010.7 0.0
17/01:30pm 36.6 30.9 4.8 14 17.1 ESE 24 39 13 21 1011.2 1011.0 0.0
17/01:00pm 36.4 31.2 5.6 15 16.8 ESE 22 37 12 20 1011.9 1011.7 0.0
17/12:30pm 35.8 31.3 4.2 14 16.8 E 17 33 9 18 1012.4 1012.2 0.0
17/12:00pm 35.5 30.7 5.8 16 16.1 ESE 20 35 11 19 1013.0 1012.8 0.0
17/11:30am 35.2 30.8 6.5 17 15.7 E 19 30 10 16 1013.6 1013.4 0.0
17/11:00am 33.8 29.5 7.7 20 14.5 E 20 37 11 20 1014.3 1014.1 0.0
17/10:30am 31.6 30.5 11.9 30 11.6 ENE 9 20 5 11 1014.9 1014.7 0.0
17/10:00am 29.8 29.8 15.1 40 9.0 E 9 15 5 8 1015.3 1015.1 0.0
17/09:30am 28.5 29.4 16.7 48 7.4 SE 7 11 4 6 1015.2 1015.0 0.0
17/09:00am 26.7 28.2 18.0 59 5.5 SW 7 11 4 6 1015.1 1014.9 -
17/08:30am 25.0 26.6 18.2 66 4.3 SSW 7 11 4 6 1014.9 1014.7 -
17/08:00am 23.3 24.8 17.7 71 3.5 SSW 6 7 3 4 1014.6 1014.4 -
17/07:30am 21.5 23.3 17.3 77 2.6 W 4 7 2 4 1014.2 1014.0 -
17/07:00am 20.7 22.1 17.3 81 2.1 WSW 6 13 3 7 1013.8 1013.6 -
17/06:30am 20.2 21.5 17.2 83 1.8 SSW 6 7 3 4 1013.5 1013.3 -
17/06:00am 19.9 20.8 16.7 82 1.9 SW 7 9 4 5 1013.3 1013.1 -
17/05:30am 20.6 22.1 16.6 78 2.4 WSW 4 7 2 4 1013.0 1012.8 -
17/05:00am 21.2 22.5 17.0 77 2.6 SSW 6 7 3 4 1012.4 1012.2 -
17/04:30am 21.2 21.9 17.0 77 2.6 SSW 9 11 5 6 1012.0 1011.8 -
17/04:00am 21.9 23.3 17.9 78 2.5 SSW 7 9 4 5 1011.9 1011.7 -
17/03:30am 21.5 22.5 16.9 75 2.8 SSW 7 9 4 5 1012.2 1012.0 -
17/03:00am 22.2 24.7 17.3 74 3.0 CALM 0 0 0 0 1012.3 1012.1 0.0
17/02:30am 22.3 24.7 17.0 72 3.3 CALM 0 0 0 0 1012.4 1012.2 -
17/02:00am 23.3 25.9 17.5 70 3.6 CALM 0 0 0 0 1012.7 1012.5 -
17/01:30am 23.8 25.3 17.5 68 3.9 WNW 6 7 3 4 1012.8 1012.6 -
17/01:00am 24.1 25.3 17.4 66 4.2 WNW 7 9 4 5 1013.1 1012.9 -
17/12:30am 24.7 25.6 16.7 61 4.9 NNW 7 9 4 5 1013.2 1013.0 -
17/12:00am 25.6 26.0 15.3 53 6.2 N 7 9 4 5 1013.4 1013.2 -
 
Date/Time
CST
Temp
°C
App
Temp
°C
Dew
Point
Rel
Hum
%
Delta-T
°C
Wind Press
QNH
hPa
Press
MSL
hPa
Rain
since 9 am
mm
Dir
 
Spd
km/h
Gust
km/h
Spd
kts
Gust
kts
16/11:30pm 26.0 26.7 15.7 53 6.3 NNE 6 9 3 5 1013.4 1013.2 -
16/11:00pm 26.3 26.9 15.7 52 6.5 NNE 7 11 4 6 1013.4 1013.2 -
16/10:30pm 26.8 26.9 15.5 50 6.9 NE 9 15 5 8 1013.3 1013.1 -
16/10:00pm 27.5 26.4 15.2 47 7.5 NNE 15 22 8 12 1013.2 1013.0 -
16/09:30pm 27.6 26.2 14.6 45 7.8 NE 15 22 8 12 1012.9 1012.7 -
16/09:00pm 27.3 28.1 16.3 51 6.8 N 7 11 4 6 1012.6 1012.4 0.0
16/08:30pm 28.0 28.3 16.0 48 7.4 NNE 9 11 5 6 1012.1 1011.9 -
16/08:00pm 29.0 28.3 15.5 44 8.3 N 13 22 7 12 1011.5 1011.3 -
16/07:30pm 29.8 28.8 15.5 42 8.8 N 15 26 8 14 1010.9 1010.7 -
16/07:00pm 30.6 28.9 15.8 40 9.2 N 19 30 10 16 1010.4 1010.2 -
16/06:30pm 31.7 29.9 15.6 37 10.0 N 19 30 10 16 1009.7 1009.5 -
16/06:00pm 35.1 33.3 8.0 19 15.2 NNE 7 9 4 5 1009.2 1009.0 -
16/05:30pm 36.1 33.0 7.2 17 16.1 E 13 24 7 13 1009.0 1008.8 -
16/05:00pm 36.3 33.6 7.4 17 16.2 ENE 11 19 6 10 1008.8 1008.6 -
16/04:30pm 36.0 32.9 7.1 17 16.1 NE 13 20 7 11 1008.9 1008.7 -
16/04:00pm 36.3 34.0 7.4 17 16.2 E 9 24 5 13 1008.9 1008.7 -
16/03:30pm 36.5 33.8 7.5 17 16.3 ENE 11 20 6 11 1009.0 1008.8 -
16/03:00pm 36.6 32.8 7.6 17 16.3 ESE 17 26 9 14 1009.4 1009.2 -
16/02:00pm 35.6 32.2 7.6 18 15.7 SE 15 22 8 12 1010.2 1010.0 0.0
16/01:30pm 35.2 31.4 8.9 20 15.0 ENE 19 32 10 17 1010.8 1010.6 0.0
16/01:00pm 35.2 32.3 9.6 21 14.7 E 15 26 8 14 1011.4 1011.2 0.0
16/12:30pm 34.4 31.9 10.9 24 13.8 ENE 15 24 8 13 1012.2 1012.0 0.0
16/12:00pm 32.9 31.6 12.5 29 12.2 NNE 11 19 6 10 1012.8 1012.6 0.0
16/11:30am 32.4 32.5 14.5 33 11.0 ESE 7 20 4 11 1013.3 1013.1 0.0
16/11:00am 31.4 31.6 15.8 39 9.7 ESE 9 17 5 9 1013.7 1013.5 0.0
16/10:30am 29.4 30.9 17.6 49 7.5 SW 6 13 3 7 1014.2 1014.0 0.0
16/10:00am 28.6 30.1 18.1 53 6.7 WSW 7 11 4 6 1014.3 1014.1 0.0
16/09:30am 27.9 29.8 18.6 57 6.0 SE 6 13 3 7 1014.4 1014.2 0.0
16/09:00am 26.3 28.7 19.7 67 4.3 SW 6 9 3 5 1014.4 1014.2 0.0
16/08:30am 25.3 28.0 20.3 74 3.3 SW 6 9 3 5 1014.2 1014.0 0.0
16/08:00am 24.1 27.8 20.0 78 2.7 CALM 0 7 0 4 1014.1 1013.9 0.0
16/07:30am 22.7 26.0 19.1 80 2.3 CALM 0 0 0 0 1013.7 1013.5 0.0
16/07:00am 21.3 23.4 19.0 87 1.5 S 6 7 3 4 1013.3 1013.1 0.0
16/06:30am 21.1 23.0 18.9 87 1.4 S 7 9 4 5 1012.9 1012.7 0.0
16/06:00am 21.4 23.3 19.0 86 1.5 SSW 7 9 4 5 1012.6 1012.4 0.0
16/05:30am 21.9 25.0 18.7 82 2.0 CALM 0 0 0 0 1012.3 1012.1 0.0
16/05:00am 22.3 24.6 19.5 84 1.8 SSW 6 7 3 4 1012.1 1011.9 0.0
16/04:30am 22.0 24.0 19.2 84 1.8 SSW 7 9 4 5 1011.9 1011.7 0.0
16/04:00am 22.0 23.8 18.8 82 2.0 SSW 7 9 4 5 1011.6 1011.4 0.0
16/03:30am 23.1 25.3 19.3 79 2.4 W 6 9 3 5 1011.6 1011.4 0.0
16/03:00am 23.2 25.3 19.4 79 2.4 NW 7 9 4 5 1011.7 1011.5 0.0
16/02:30am 23.3 24.8 19.0 77 2.7 NW 9 9 5 5 1012.0 1011.8 0.0
16/02:00am 23.5 25.3 18.8 75 3.0 NW 7 11 4 6 1012.1 1011.9 0.0
16/01:30am 23.9 25.7 18.8 73 3.2 NNW 7 9 4 5 1012.3 1012.1 0.0
16/01:00am 24.4 26.1 18.1 68 4.0 NNE 6 7 3 4 1012.4 1012.2 0.0
16/12:30am 24.6 25.9 17.6 65 4.4 NNE 7 11 4 6 1012.7 1012.5 0.0
16/12:00am 24.8 26.5 18.0 66 4.3 NNE 6 9 3 5 1012.8 1012.6 0.0
 
Date/Time
CST
Temp
°C
App
Temp
°C
Dew
Point
Rel
Hum
%
Delta-T
°C
Wind Press
QNH
hPa
Press
MSL
hPa
Rain
since 9 am
mm
Dir
 
Spd
km/h
Gust
km/h
Spd
kts
Gust
kts
15/11:30pm 25.1 27.3 18.3 66 4.3 N 4 7 2 4 1012.7 1012.5 0.0
15/11:00pm 25.5 27.3 18.2 64 4.6 N 6 9 3 5 1012.6 1012.4 0.0
15/10:30pm 26.0 27.4 17.9 61 5.1 NNW 7 9 4 5 1012.4 1012.2 0.0
15/10:00pm 26.4 27.8 17.7 58 5.5 N 7 11 4 6 1012.2 1012.0 0.0
15/09:30pm 27.1 27.4 17.8 56 5.9 NNW 13 17 7 9 1011.9 1011.7 0.0
15/09:00pm 27.6 28.6 18.6 58 5.8 NNW 11 15 6 8 1011.7 1011.5 0.0
15/08:30pm 28.1 29.0 19.3 58 5.7 NNW 13 19 7 10 1011.4 1011.2 0.0
15/08:00pm 28.7 29.6 19.3 56 6.1 NW 13 17 7 9 1010.9 1010.7 0.0
15/07:30pm 29.3 29.3 19.0 53 6.7 NNW 17 26 9 14 1010.4 1010.2 0.0
15/07:00pm 30.0 29.4 18.8 51 7.2 N 20 32 11 17 1009.9 1009.7 0.0
15/06:30pm 32.8 31.1 8.3 22 13.7 NNE 7 11 4 6 1009.3 1009.1 0.0
15/06:00pm 34.6 32.0 6.0 17 15.6 ENE 9 13 5 7 1009.0 1008.8 0.0
15/05:30pm 35.1 32.4 5.5 16 16.0 ENE 9 13 5 7 1008.9 1008.7 0.0

Other Formats:

Comma delimited format used in spreadsheet applications
http://www.bom.gov.au/fwo/IDD60801/IDD60801.94137.axf

JavaScript Object Notation format (JSON) in row-major order
http://www.bom.gov.au/fwo/IDD60801/IDD60801.94137.json